Decoded Metar for KSDC ( in ) (IATA:) | Meteo·Mobile Aviation Weather
aviador You're here:

KSDC Decoded Metar

in
Report Time2018-11-19 08:55:00
UTC Time2018-11-19 09:32:05
Flight Rules mvfr MVFR
Wind240° at 05 kt
W.Decomp.*RWY 28: 3.8 kt HW 3.2 kt LCW
W.Rank240° ranks 3
Current wind is below 240° avg. (7.2)
Visibility9999 m
Phenomena:N/A
Clouds:Overcast 018 Hf
Expected CloudBase > 400 ft AGL from Temp-Dew spread
Ceiling1,800 ft
Temp01°C
Dew Point00°C (93% RH)
AAT-2.8°C
QNH1020 hPa
Raw Report
KSDC 190855Z AUTO 24005KT 7SM OVC018 01/00 A3012 RMK AO2=

Extra information for KSDC:More info

Social comments